createdAt,value
2023-04-18T00:02:15.463Z,9.45
2023-04-18T00:04:43.418Z,9.23
2023-04-18T00:07:13.164Z,9.25
2023-04-18T00:09:41.056Z,9.70
2023-04-18T00:12:11.948Z,9.05
2023-04-18T00:14:40.910Z,9.85
2023-04-18T00:17:09.535Z,10.15
2023-04-18T00:19:41.404Z,9.15
2023-04-18T00:22:09.361Z,10.13
2023-04-18T00:24:37.215Z,9.70
2023-04-18T00:27:05.189Z,10.02
2023-04-18T00:29:34.334Z,10.07
2023-04-18T00:32:02.159Z,9.55
2023-04-18T00:34:29.974Z,9.82
2023-04-18T00:36:58.153Z,10.00
2023-04-18T00:39:25.951Z,9.45
2023-04-18T00:41:53.825Z,9.75
2023-04-18T00:44:21.826Z,10.13
2023-04-18T00:46:51.247Z,9.43
2023-04-18T00:49:19.114Z,9.70
2023-04-18T00:51:47.955Z,9.38
2023-04-18T00:54:18.588Z,10.40
2023-04-18T00:56:47.509Z,9.90
2023-04-18T00:59:15.614Z,9.98
2023-04-18T01:01:45.152Z,9.70
2023-04-18T01:04:14.983Z,10.48
2023-04-18T01:06:44.156Z,9.75
2023-04-18T01:09:12.673Z,10.20
2023-04-18T01:11:40.618Z,9.75
2023-04-18T01:14:09.680Z,9.70
2023-04-18T01:16:38.874Z,9.77
2023-04-18T01:19:06.980Z,10.40
2023-04-18T01:21:37.507Z,9.45
2023-04-18T01:24:11.152Z,9.50
2023-04-18T01:26:39.386Z,9.63
2023-04-18T01:29:07.366Z,9.88
2023-04-18T01:31:36.632Z,9.70
2023-04-18T01:34:04.614Z,8.98
2023-04-18T01:36:32.690Z,9.05
2023-04-18T01:39:00.745Z,9.13
2023-04-18T01:41:32.989Z,9.00
2023-04-18T01:44:01.612Z,8.82
2023-04-18T01:46:29.964Z,8.75
2023-04-18T01:48:58.481Z,8.82
2023-04-18T01:51:26.466Z,8.88
2023-04-18T01:53:54.436Z,8.57
2023-04-18T01:56:22.346Z,9.23
2023-04-18T01:58:51.566Z,8.60
2023-04-18T02:01:20.238Z,8.70
2023-04-18T02:03:48.350Z,8.90
2023-04-18T02:06:16.466Z,8.30
2023-04-18T02:08:44.291Z,8.50
2023-04-18T02:11:12.309Z,9.05
2023-04-18T02:13:40.176Z,8.98
2023-04-18T02:16:12.962Z,8.00
2023-04-18T02:18:41.484Z,8.13
2023-04-18T02:21:11.172Z,8.40
2023-04-18T02:23:39.101Z,7.90
2023-04-18T02:26:06.993Z,8.10
2023-04-18T02:28:34.851Z,8.02
2023-04-18T02:31:02.747Z,8.18
2023-04-18T02:33:32.044Z,7.80
2023-04-18T02:35:59.978Z,8.20
2023-04-18T02:38:44.887Z,7.97
2023-04-18T02:41:23.590Z,7.93
2023-04-18T02:43:51.456Z,8.50
2023-04-18T02:46:19.347Z,7.63
2023-04-18T02:48:48.861Z,8.27
2023-04-18T02:51:16.900Z,7.80
2023-04-18T02:53:44.742Z,8.00
2023-04-18T02:56:13.003Z,7.53
2023-04-18T02:58:40.862Z,7.80
2023-04-18T03:01:08.773Z,7.60
2023-04-18T03:03:36.627Z,7.38
2023-04-18T03:06:06.029Z,7.90
2023-04-18T03:08:33.870Z,7.18
2023-04-18T03:11:01.705Z,7.40
2023-04-18T03:13:29.471Z,7.32
2023-04-18T03:15:57.472Z,7.75
2023-04-18T03:18:25.328Z,7.60
2023-04-18T03:20:53.539Z,7.70
2023-04-18T03:23:22.880Z,7.78
2023-04-18T03:25:50.706Z,7.53
2023-04-18T03:28:18.454Z,7.32
2023-04-18T03:30:46.218Z,7.35
2023-04-18T03:33:14.902Z,7.40
2023-04-18T03:35:42.760Z,7.63
2023-04-18T03:38:10.542Z,7.53
2023-04-18T03:40:40.125Z,7.97
2023-04-18T03:43:07.888Z,7.78
2023-04-18T03:45:36.056Z,8.13
2023-04-18T03:48:04.727Z,8.02
2023-04-18T03:50:32.451Z,8.07
2023-04-18T03:53:00.774Z,8.60
2023-04-18T03:55:28.789Z,8.13
2023-04-18T03:57:59.127Z,8.75
2023-04-18T04:00:27.139Z,8.65
2023-04-18T04:02:55.091Z,8.70
2023-04-18T04:05:23.022Z,9.07
2023-04-18T04:07:50.891Z,8.43
2023-04-18T04:10:18.699Z,8.68
2023-04-18T04:12:46.909Z,9.55
2023-04-18T04:15:16.234Z,9.48
2023-04-18T04:17:44.256Z,10.15
2023-04-18T04:20:13.138Z,9.65
2023-04-18T04:22:41.490Z,10.43
2023-04-18T04:25:10.897Z,10.50
2023-04-18T04:27:38.981Z,10.60
2023-04-18T04:30:09.325Z,9.88
2023-04-18T04:32:39.399Z,10.48
2023-04-18T04:35:09.068Z,9.93
2023-04-18T04:37:37.063Z,10.05
2023-04-18T04:40:06.329Z,10.40
2023-04-18T04:42:34.625Z,10.23
2023-04-18T04:45:02.432Z,9.88
2023-04-18T04:47:30.394Z,10.10
2023-04-18T04:49:59.547Z,10.23
2023-04-18T04:52:27.394Z,10.30
2023-04-18T04:54:55.170Z,10.30
2023-04-18T04:57:22.882Z,10.27
2023-04-18T04:59:50.618Z,10.75
2023-04-18T05:02:18.367Z,10.90
2023-04-18T05:04:46.132Z,10.25
2023-04-18T05:07:15.207Z,10.80
2023-04-18T05:09:43.175Z,10.82
2023-04-18T05:12:10.974Z,10.95
2023-04-18T05:14:38.632Z,10.38
2023-04-18T05:17:14.096Z,11.13
2023-04-18T05:19:44.406Z,10.40
2023-04-18T05:22:12.234Z,10.80
2023-04-18T05:24:41.913Z,11.32
2023-04-18T05:27:09.876Z,11.10
2023-04-18T05:29:38.113Z,11.20
2023-04-18T05:32:06.662Z,11.73
2023-04-18T05:34:38.040Z,11.23
2023-04-18T05:37:06.508Z,11.68
2023-04-18T05:39:34.430Z,10.98
2023-04-18T05:42:03.664Z,11.35
2023-04-18T05:44:31.378Z,13.02
2023-04-18T05:46:59.059Z,12.55
2023-04-18T05:49:27.016Z,11.38
2023-04-18T05:51:56.425Z,11.27
2023-04-18T05:54:25.116Z,12.05
2023-04-18T05:56:53.172Z,11.60
2023-04-18T05:59:22.822Z,11.55
2023-04-18T06:01:51.407Z,10.48
2023-04-18T06:04:20.841Z,11.30
2023-04-18T06:06:49.039Z,10.82
2023-04-18T06:09:17.089Z,11.18
2023-04-18T06:11:44.885Z,15.07
2023-04-18T06:14:12.875Z,12.00
2023-04-18T06:16:42.300Z,10.95
2023-04-18T06:19:10.436Z,10.88
2023-04-18T06:21:38.249Z,11.23
2023-04-18T06:24:06.449Z,10.60
2023-04-18T06:26:34.474Z,10.48
2023-04-18T06:29:02.226Z,10.00
2023-04-18T06:31:30.103Z,10.30
2023-04-18T06:33:59.280Z,10.75
2023-04-18T06:36:27.937Z,11.00
2023-04-18T06:38:57.425Z,10.82
2023-04-18T06:41:25.186Z,10.38
2023-04-18T06:44:03.406Z,10.73
2023-04-18T06:46:32.525Z,11.90
2023-04-18T06:49:01.729Z,14.88
2023-04-18T06:51:29.559Z,12.35
2023-04-18T06:53:57.306Z,11.05
2023-04-18T06:56:25.095Z,11.55
2023-04-18T06:58:53.853Z,12.02
2023-04-18T07:01:21.952Z,11.25
2023-04-18T07:03:50.138Z,12.68
2023-04-18T07:06:19.411Z,12.95
2023-04-18T07:08:47.119Z,12.90
2023-04-18T07:11:15.606Z,14.10
2023-04-18T07:13:43.597Z,14.20
2023-04-18T07:16:11.326Z,13.50
2023-04-18T07:18:39.063Z,12.90
2023-04-18T07:21:08.096Z,14.23
2023-04-18T07:23:37.458Z,13.10
2023-04-18T07:26:06.434Z,13.20
2023-04-18T07:28:34.511Z,12.60
2023-04-18T07:31:03.761Z,14.52
2023-04-18T07:33:33.737Z,16.25
2023-04-18T07:36:02.599Z,13.07
2023-04-18T07:38:30.391Z,14.05
2023-04-18T07:41:00.635Z,13.10
2023-04-18T07:43:28.588Z,13.45
2023-04-18T07:45:56.693Z,13.88
2023-04-18T07:48:27.125Z,15.23
2023-04-18T07:50:55.192Z,13.82
2023-04-18T07:53:22.895Z,13.52
2023-04-18T07:55:51.309Z,13.63
2023-04-18T07:58:20.969Z,13.93
2023-04-18T08:00:48.741Z,13.52
2023-04-18T08:03:16.759Z,13.73
2023-04-18T08:05:45.017Z,13.98
2023-04-18T08:08:13.601Z,13.60
2023-04-18T08:10:41.343Z,14.38
2023-04-18T08:13:09.502Z,14.38
2023-04-18T08:15:39.092Z,13.93
2023-04-18T08:18:07.054Z,14.70
2023-04-18T08:20:36.310Z,14.52
2023-04-18T08:23:08.673Z,14.73
2023-04-18T08:25:38.306Z,14.52
2023-04-18T08:28:06.467Z,14.18
2023-04-18T08:30:34.326Z,14.40
2023-04-18T08:33:04.290Z,13.60
2023-04-18T08:35:32.169Z,15.00
2023-04-18T08:37:59.938Z,14.68
2023-04-18T08:40:27.731Z,14.93
2023-04-18T08:42:58.396Z,14.88
2023-04-18T08:45:26.201Z,14.23
2023-04-18T08:47:54.013Z,14.15
2023-04-18T08:50:23.386Z,13.30
2023-04-18T08:52:52.400Z,13.48
2023-04-18T08:55:22.270Z,13.77
2023-04-18T08:57:54.189Z,13.63
2023-04-18T09:00:23.772Z,12.82
2023-04-18T09:02:56.540Z,12.60
2023-04-18T09:05:27.625Z,13.35
2023-04-18T09:07:56.680Z,13.45
2023-04-18T09:10:29.777Z,13.20
2023-04-18T09:12:58.750Z,12.73
2023-04-18T09:15:29.168Z,12.68
2023-04-18T09:17:58.913Z,12.38
2023-04-18T09:20:37.749Z,13.00
2023-04-18T09:23:10.398Z,13.32
2023-04-18T09:25:45.108Z,13.38
2023-04-18T09:28:24.376Z,14.23
2023-04-18T09:30:53.180Z,14.45
2023-04-18T09:33:28.875Z,14.25
2023-04-18T09:36:17.605Z,13.30
2023-04-18T09:38:45.651Z,13.20
2023-04-18T09:41:15.776Z,12.68
2023-04-18T09:43:43.878Z,13.55
2023-04-18T09:46:12.682Z,13.43
2023-04-18T09:48:40.761Z,12.90
2023-04-18T09:51:11.640Z,13.45
2023-04-18T09:53:40.524Z,14.07
2023-04-18T09:56:13.766Z,13.70
2023-04-18T09:58:42.952Z,13.32
2023-04-18T10:01:13.218Z,13.90
2023-04-18T10:03:48.225Z,14.95
2023-04-18T10:06:18.252Z,14.63
2023-04-18T10:08:49.031Z,14.55
2023-04-18T10:11:18.578Z,15.00
2023-04-18T10:13:50.434Z,14.52
2023-04-18T10:16:18.592Z,14.07
2023-04-18T10:18:46.371Z,14.23
2023-04-18T10:21:14.075Z,13.88
2023-04-18T10:23:43.168Z,14.75
2023-04-18T10:26:11.820Z,13.88
2023-04-18T10:28:57.217Z,14.40
2023-04-18T10:31:26.494Z,13.73
2023-04-18T10:34:04.768Z,14.35
2023-04-18T10:36:34.036Z,14.93
2023-04-18T10:39:20.590Z,14.55
2023-04-18T10:41:51.090Z,13.88
2023-04-18T10:44:22.230Z,14.80
2023-04-18T10:47:31.952Z,14.80
2023-04-18T10:50:06.271Z,15.27
2023-04-18T10:52:34.662Z,14.45
2023-04-18T10:55:14.060Z,14.65
2023-04-18T10:57:43.852Z,15.00
2023-04-18T11:00:13.973Z,15.40
2023-04-18T11:02:49.012Z,15.93
2023-04-18T11:05:21.334Z,16.65
2023-04-18T11:07:49.794Z,16.08
2023-04-18T11:10:20.938Z,16.80
2023-04-18T11:12:49.412Z,15.02
2023-04-18T11:15:21.523Z,15.52
2023-04-18T11:20:24.253Z,14.65
2023-04-18T11:22:53.318Z,15.82
2023-04-18T11:25:28.527Z,14.93
2023-04-18T11:27:59.482Z,15.32
2023-04-18T11:30:27.418Z,15.50
2023-04-18T11:32:56.031Z,16.02
2023-04-18T11:35:24.148Z,15.63
2023-04-18T11:37:52.126Z,15.90
2023-04-18T11:40:19.951Z,15.48
2023-04-18T11:42:49.111Z,14.90
2023-04-18T11:45:16.999Z,15.57
2023-04-18T11:47:46.361Z,16.63
2023-04-18T11:50:14.753Z,16.17
2023-04-18T11:52:43.614Z,16.10
2023-04-18T11:55:14.215Z,16.25
2023-04-18T11:57:42.592Z,16.85
2023-04-18T12:00:15.112Z,15.80
2023-04-18T12:05:14.978Z,15.60
2023-04-18T12:07:45.236Z,16.63
2023-04-18T12:10:25.673Z,16.30
2023-04-18T12:12:54.624Z,16.08
2023-04-18T12:15:27.103Z,16.58
2023-04-18T12:17:59.291Z,16.33
2023-04-18T12:20:34.842Z,16.25
2023-04-18T12:23:03.478Z,16.73
2023-04-18T12:25:31.646Z,17.77
2023-04-18T12:28:01.641Z,17.58
2023-04-18T12:30:32.344Z,17.05
2023-04-18T12:33:01.685Z,17.70
2023-04-18T12:35:32.851Z,17.75
2023-04-18T12:38:02.215Z,16.70
2023-04-18T12:40:30.682Z,16.80
2023-04-18T12:42:59.487Z,16.48
2023-04-18T12:45:28.500Z,17.27
2023-04-18T12:47:57.781Z,17.27
2023-04-18T12:50:27.181Z,16.70
2023-04-18T12:52:56.372Z,16.85
2023-04-18T12:55:24.481Z,16.58
2023-04-18T12:57:54.459Z,16.17
2023-04-18T13:00:24.432Z,18.80
2023-04-18T13:02:52.877Z,18.67
2023-04-18T13:05:23.870Z,19.20
2023-04-18T13:07:58.732Z,18.58
2023-04-18T13:10:33.197Z,19.35
2023-04-18T13:13:00.925Z,19.25
2023-04-18T13:15:28.802Z,19.42
2023-04-18T13:17:57.265Z,19.05
2023-04-18T13:20:26.804Z,17.75
2023-04-18T13:22:54.576Z,18.48
2023-04-18T13:25:22.591Z,17.27
2023-04-18T13:27:51.202Z,17.27
2023-04-18T13:30:19.417Z,19.83
2023-04-18T13:32:47.321Z,20.08
2023-04-18T13:35:15.088Z,20.90
2023-04-18T13:37:44.953Z,19.58
2023-04-18T13:40:13.725Z,17.40
2023-04-18T13:42:41.528Z,18.35
2023-04-18T13:45:09.920Z,17.25
2023-04-18T13:47:38.398Z,17.88
2023-04-18T13:50:07.252Z,17.67
2023-04-18T13:52:35.296Z,18.48
2023-04-18T13:55:19.798Z,18.58
2023-04-18T13:57:47.618Z,16.90
2023-04-18T14:00:17.011Z,18.15
2023-04-18T14:02:45.145Z,17.40
2023-04-18T14:05:13.316Z,17.67
2023-04-18T14:07:41.305Z,16.50
2023-04-18T14:10:10.409Z,17.13
2023-04-18T14:12:39.921Z,17.15
2023-04-18T14:15:11.392Z,17.60
2023-04-18T14:17:39.193Z,17.48
2023-04-18T14:20:08.490Z,17.63
2023-04-18T14:22:36.348Z,17.40
2023-04-18T14:25:04.237Z,18.30
2023-04-18T14:27:32.865Z,17.75
2023-04-18T14:30:02.124Z,17.98
2023-04-18T14:32:30.514Z,17.73
2023-04-18T14:34:59.012Z,17.15
2023-04-18T14:37:26.715Z,17.15
2023-04-18T14:39:54.965Z,16.88
2023-04-18T14:42:22.737Z,17.67
2023-04-18T14:44:50.562Z,16.77
2023-04-18T14:47:19.911Z,17.63
2023-04-18T14:49:47.627Z,16.85
2023-04-18T14:52:15.437Z,17.35
2023-04-18T14:54:43.962Z,15.50
2023-04-18T14:57:12.917Z,15.27
2023-04-18T14:59:40.631Z,16.60
2023-04-18T15:02:08.478Z,16.27
2023-04-18T15:04:37.873Z,15.00
2023-04-18T15:07:06.260Z,15.32
2023-04-18T15:09:37.305Z,15.73
2023-04-18T15:12:05.798Z,15.27
2023-04-18T15:14:34.395Z,14.57
2023-04-18T15:17:02.934Z,15.23
2023-04-18T15:19:32.179Z,13.73
2023-04-18T15:22:01.647Z,14.90
2023-04-18T15:24:29.663Z,15.75
2023-04-18T15:26:58.764Z,14.98
2023-04-18T15:29:28.649Z,14.30
2023-04-18T15:31:56.525Z,15.10
2023-04-18T15:34:24.271Z,14.75
2023-04-18T15:36:52.137Z,13.63
2023-04-18T15:39:23.452Z,14.48
2023-04-18T15:41:54.633Z,14.63
2023-04-18T15:44:22.459Z,14.15
2023-04-18T15:46:51.145Z,15.20
2023-04-18T15:49:18.939Z,15.43
2023-04-18T15:51:46.697Z,15.85
2023-04-18T15:54:14.653Z,15.05
2023-04-18T15:56:44.756Z,16.38
2023-04-18T15:59:13.257Z,16.17
2023-04-18T16:01:41.075Z,16.98
2023-04-18T16:04:09.189Z,16.92
2023-04-18T16:06:37.485Z,16.40
2023-04-18T16:09:06.855Z,16.55
2023-04-18T16:11:34.669Z,16.23
2023-04-18T16:14:03.894Z,16.20
2023-04-18T16:16:31.747Z,15.90
2023-04-18T16:19:02.106Z,16.52
2023-04-18T16:21:29.994Z,15.88
2023-04-18T16:23:57.796Z,16.35
2023-04-18T16:26:26.022Z,16.15
2023-04-18T16:28:53.884Z,15.73
2023-04-18T16:31:23.104Z,15.50
2023-04-18T16:33:52.533Z,15.77
2023-04-18T16:36:20.643Z,15.80
2023-04-18T16:38:48.568Z,15.15
2023-04-18T16:41:16.524Z,16.35
2023-04-18T16:43:44.637Z,15.90
2023-04-18T16:46:13.837Z,15.70
2023-04-18T16:48:45.060Z,14.85
2023-04-18T16:51:13.168Z,15.25
2023-04-18T16:53:41.033Z,15.10
2023-04-18T16:56:09.303Z,14.75
2023-04-18T16:58:37.102Z,15.25
2023-04-18T17:01:04.854Z,14.88
2023-04-18T17:03:32.641Z,14.98
2023-04-18T17:06:02.219Z,14.68
2023-04-18T17:08:31.956Z,15.90
2023-04-18T17:11:02.242Z,15.38
2023-04-18T17:13:31.476Z,15.15
2023-04-18T17:15:59.350Z,14.38
2023-04-18T17:18:33.941Z,15.77
2023-04-18T17:21:22.689Z,14.77
2023-04-18T17:23:50.489Z,16.08
2023-04-18T17:26:18.864Z,14.30
2023-04-18T17:28:46.782Z,15.15
2023-04-18T17:31:17.447Z,14.00
2023-04-18T17:33:46.278Z,14.77
2023-04-18T17:36:16.043Z,14.23
2023-04-18T17:38:48.879Z,14.95
2023-04-18T17:41:17.604Z,14.55
2023-04-18T17:43:46.587Z,15.07
2023-04-18T17:46:15.099Z,14.57
2023-04-18T17:48:43.040Z,14.20
2023-04-18T17:51:10.827Z,14.32
2023-04-18T17:53:39.937Z,14.90
2023-04-18T17:56:07.655Z,14.80
2023-04-18T17:58:35.594Z,14.15
2023-04-18T18:01:15.052Z,14.43
2023-04-18T18:03:44.900Z,14.27
2023-04-18T18:06:13.930Z,15.40
2023-04-18T18:08:44.166Z,14.80
2023-04-18T18:11:12.072Z,14.40
2023-04-18T18:13:40.204Z,14.88
2023-04-18T18:16:09.114Z,14.13
2023-04-18T18:18:39.759Z,14.07
2023-04-18T18:21:07.564Z,14.23
2023-04-18T18:23:35.409Z,14.93
2023-04-18T18:26:06.588Z,14.68
2023-04-18T18:28:34.508Z,14.18
2023-04-18T18:31:02.512Z,14.57
2023-04-18T18:33:30.608Z,14.68
2023-04-18T18:35:58.721Z,15.32
2023-04-18T18:38:26.662Z,15.07
2023-04-18T18:40:56.200Z,14.45
2023-04-18T18:43:26.305Z,14.30
2023-04-18T18:45:54.956Z,14.90
2023-04-18T18:48:23.118Z,16.27
2023-04-18T18:50:51.365Z,15.43
2023-04-18T18:53:19.200Z,15.77
2023-04-18T18:55:46.929Z,14.15
2023-04-18T18:58:14.780Z,14.50
2023-04-18T19:00:43.897Z,14.50
2023-04-18T19:03:12.527Z,14.70
2023-04-18T19:05:40.749Z,14.23
2023-04-18T19:08:11.244Z,14.48
2023-04-18T19:10:39.131Z,14.20
2023-04-18T19:13:06.849Z,14.82
2023-04-18T19:15:34.778Z,14.60
2023-04-18T19:18:04.081Z,13.90
2023-04-18T19:20:31.871Z,13.95
2023-04-18T19:22:59.622Z,14.05
2023-04-18T19:25:27.384Z,14.10
2023-04-18T19:27:55.356Z,14.77
2023-04-18T19:30:23.265Z,13.98
2023-04-18T19:32:51.093Z,13.88
2023-04-18T19:35:21.632Z,15.77
2023-04-18T19:37:49.349Z,13.93
2023-04-18T19:40:17.351Z,13.25
2023-04-18T19:42:46.063Z,13.75
2023-04-18T19:45:15.092Z,14.30
2023-04-18T19:47:44.228Z,13.73
2023-04-18T19:50:12.455Z,14.38
2023-04-18T19:52:41.776Z,13.75
2023-04-18T19:55:10.523Z,13.18
2023-04-18T19:57:41.285Z,13.98
2023-04-18T20:00:11.497Z,14.52
2023-04-18T20:02:39.988Z,14.15
2023-04-18T20:05:09.641Z,15.95
2023-04-18T20:07:42.998Z,13.82
2023-04-18T20:10:11.346Z,12.88
2023-04-18T20:12:40.541Z,12.73
2023-04-18T20:15:12.497Z,13.07
2023-04-18T20:17:40.270Z,12.63
2023-04-18T20:20:10.963Z,12.63
2023-04-18T20:22:40.303Z,13.90
2023-04-18T20:25:10.020Z,13.23
2023-04-18T20:27:37.894Z,12.85
2023-04-18T20:30:07.141Z,13.27
2023-04-18T20:32:34.965Z,13.27
2023-04-18T20:35:04.406Z,13.70
2023-04-18T20:37:36.613Z,13.70
2023-04-18T20:42:39.086Z,14.52
2023-04-18T20:45:40.359Z,13.02
2023-04-18T20:48:09.509Z,14.15
2023-04-18T20:50:40.280Z,13.70
2023-04-18T20:53:08.709Z,14.05
2023-04-18T20:55:36.535Z,13.63
2023-04-18T20:58:05.577Z,14.20
2023-04-18T21:00:33.321Z,14.30
2023-04-18T21:03:02.129Z,14.90
2023-04-18T21:05:30.038Z,15.25
2023-04-18T21:07:59.582Z,14.25
2023-04-18T21:10:27.308Z,15.23
2023-04-18T21:12:55.284Z,15.70
2023-04-18T21:15:24.475Z,15.13
2023-04-18T21:17:52.298Z,15.07
2023-04-18T21:20:20.487Z,15.88
2023-04-18T21:22:48.281Z,14.60
2023-04-18T21:25:16.454Z,14.88
2023-04-18T21:27:44.133Z,14.63
2023-04-18T21:30:12.432Z,14.18
2023-04-18T21:32:41.522Z,14.45
2023-04-18T21:35:09.985Z,14.32
2023-04-18T21:37:37.627Z,15.13
2023-04-18T21:40:06.408Z,14.35
2023-04-18T21:42:35.088Z,14.07
2023-04-18T21:45:02.848Z,14.18
2023-04-18T21:47:30.685Z,14.07
2023-04-18T21:49:59.782Z,14.32
2023-04-18T21:52:27.480Z,13.82
2023-04-18T21:54:55.180Z,14.57
2023-04-18T21:57:22.940Z,13.57
2023-04-18T21:59:50.594Z,13.93
2023-04-18T22:02:18.452Z,14.27
2023-04-18T22:04:48.058Z,14.68
2023-04-18T22:07:18.768Z,14.60
2023-04-18T22:09:46.891Z,14.35
2023-04-18T22:12:15.742Z,14.55
2023-04-18T22:14:48.109Z,14.20
2023-04-18T22:17:15.852Z,14.63
2023-04-18T22:19:44.922Z,14.60
2023-04-18T22:22:12.636Z,14.35
2023-04-18T22:24:41.675Z,14.50
2023-04-18T22:27:09.391Z,14.75
2023-04-18T22:29:37.067Z,14.25
2023-04-18T22:32:04.810Z,15.32
2023-04-18T22:34:32.463Z,15.18
2023-04-18T22:37:00.245Z,15.38
2023-04-18T22:39:28.018Z,16.05
2023-04-18T22:42:12.783Z,15.34
2023-04-18T22:44:40.458Z,14.77
2023-04-18T22:47:08.512Z,15.15
2023-04-18T22:49:36.164Z,15.82
2023-04-18T22:52:04.074Z,15.40
2023-04-18T22:54:31.765Z,15.63
2023-04-18T22:56:59.461Z,16.08
2023-04-18T22:59:28.532Z,15.40
2023-04-18T23:01:56.455Z,16.33
2023-04-18T23:04:24.452Z,15.88
2023-04-18T23:06:52.247Z,16.02
2023-04-18T23:09:20.012Z,16.38
2023-04-18T23:11:47.700Z,16.15
2023-04-18T23:14:15.696Z,16.15
2023-04-18T23:16:44.962Z,16.27
2023-04-18T23:19:12.628Z,16.85
2023-04-18T23:21:40.474Z,16.90
2023-04-18T23:24:08.747Z,16.48
2023-04-18T23:26:36.472Z,16.45
2023-04-18T23:29:04.239Z,16.23
2023-04-18T23:31:32.763Z,16.35
2023-04-18T23:34:02.012Z,17.15
2023-04-18T23:36:29.784Z,17.27
2023-04-18T23:38:57.479Z,17.73
2023-04-18T23:41:25.152Z,18.08
2023-04-18T23:43:52.855Z,18.40
2023-04-18T23:46:20.606Z,17.58
2023-04-18T23:48:48.399Z,18.40
2023-04-18T23:51:17.520Z,18.25
2023-04-18T23:53:45.292Z,17.42
2023-04-18T23:56:13.066Z,18.25
2023-04-18T23:58:41.069Z,17.58
